Laura Schulte — A8RF9 — position and weather

sailwx.info

Track history (hours):
 
Tides and Currents Weather Stations Pressure Air Temp Water Temp Dewpoint Dewpoint Depression Visibility Wind Speed Wind Dir Waves Ship Positions

Laura Schulte

Last reported at 2017-Dec-11 16:52 UTC. Time now 2017-Dec-12 12:29 UTC.
Position N 36°02' E 013°51'.

Length 175 m; draft 9.5 m.

Type: Ship (hazmat cat A). MMSI: 636018395.

Date/timePositionNaut miles runAvg speedWind from/ knotsBaromVisibWave heightAir tempDewpointWater temp
2017-Dec-11 16:52N 36°02' E 013°51'411.0
2017-Dec-11 16:30N 35°60' E 013°55'610.9
2017-Dec-11 16:00N 35°57' E 014°01'510.9
2017-Dec-11 15:31N 35°54' E 014°06'510.6
2017-Dec-11 15:00N 35°51' E 014°12'510.6
2017-Dec-11 14:30N 35°48' E 014°17'510.5
2017-Dec-11 14:00N 35°45' E 014°23'9 0.3
2017-Dec-10 12:08N 35°49' E 014°32'0 0.0
2017-Dec-10 11:47N 35°49' E 014°32'0 0.0
2017-Dec-10 11:26N 35°49' E 014°32'0 0.0
2017-Dec-10 01:37N 35°49' E 014°32'0 0.8
2017-Dec-10 01:25N 35°49' E 014°32'2 4.7
2017-Dec-10 01:00N 35°48' E 014°34'7 8.8
2017-Dec-10 00:10N 35°43' E 014°28'211.0
2017-Dec-10 00:00N 35°43' E 014°25'612.1
2017-Dec-09 23:30N 35°46' E 014°19'612.2
2017-Dec-09 23:00N 35°49' E 014°13'612.6
2017-Dec-09 22:30N 35°53' E 014°06'612.5
2017-Dec-09 22:00N 35°56' E 013°59'612.4
2017-Dec-09 21:30N 35°60' E 013°53'611.9
2017-Dec-09 21:00N 36°03' E 013°47'611.9
2017-Dec-09 20:30N 36°06' E 013°41'  
Track history (hours):
 
Tides and Currents Weather Stations Pressure Air Temp Water Temp Dewpoint Dewpoint Depression Visibility Wind Speed Wind Dir Waves Ship Positions

Laura Schulte

Last reported at 2017-Dec-11 16:52 UTC. Time now 2017-Dec-12 12:29 UTC.
Position N 36°02' E 013°51'.

Length 175 m; draft 9.5 m.

Type: Ship (hazmat cat A). MMSI: 636018395.

Date/timePositionNaut miles runAvg speedWind from/ knotsBaromVisibWave heightAir tempDewpointWater temp
2017-Dec-11 16:52N 36°02' E 013°51'411.0
2017-Dec-11 16:30N 35°60' E 013°55'610.9
2017-Dec-11 16:00N 35°57' E 014°01'510.9
2017-Dec-11 15:31N 35°54' E 014°06'510.6
2017-Dec-11 15:00N 35°51' E 014°12'510.6
2017-Dec-11 14:30N 35°48' E 014°17'510.5
2017-Dec-11 14:00N 35°45' E 014°23'9 0.3
2017-Dec-10 12:08N 35°49' E 014°32'0 0.0
2017-Dec-10 11:47N 35°49' E 014°32'0 0.0
2017-Dec-10 11:26N 35°49' E 014°32'0 0.0
2017-Dec-10 01:37N 35°49' E 014°32'0 0.8
2017-Dec-10 01:25N 35°49' E 014°32'2 4.7
2017-Dec-10 01:00N 35°48' E 014°34'7 8.8
2017-Dec-10 00:10N 35°43' E 014°28'211.0
2017-Dec-10 00:00N 35°43' E 014°25'612.1
2017-Dec-09 23:30N 35°46' E 014°19'612.2
2017-Dec-09 23:00N 35°49' E 014°13'612.6
2017-Dec-09 22:30N 35°53' E 014°06'612.5
2017-Dec-09 22:00N 35°56' E 013°59'612.4
2017-Dec-09 21:30N 35°60' E 013°53'611.9
2017-Dec-09 21:00N 36°03' E 013°47'611.9
2017-Dec-09 20:30N 36°06' E 013°41'  

Dump ship's entire track history